sensor_id;sensor_type;location;lat;lon;timestamp;temperature;humidity
58809;DHT22;44579;51.672;7.834;2024-01-15T00:00:16;1.80;96.60
58809;DHT22;44579;51.672;7.834;2024-01-15T00:02:43;1.80;96.60
58809;DHT22;44579;51.672;7.834;2024-01-15T00:05:10;1.90;96.70
58809;DHT22;44579;51.672;7.834;2024-01-15T00:07:37;1.80;96.70
58809;DHT22;44579;51.672;7.834;2024-01-15T00:10:04;1.80;96.70
58809;DHT22;44579;51.672;7.834;2024-01-15T00:12:30;1.80;96.70
58809;DHT22;44579;51.672;7.834;2024-01-15T00:14:57;1.80;96.70
58809;DHT22;44579;51.672;7.834;2024-01-15T00:17:24;1.80;96.70
58809;DHT22;44579;51.672;7.834;2024-01-15T00:19:51;1.80;96.70
58809;DHT22;44579;51.672;7.834;2024-01-15T00:22:18;1.80;96.80
58809;DHT22;44579;51.672;7.834;2024-01-15T00:24:45;1.90;96.80
58809;DHT22;44579;51.672;7.834;2024-01-15T00:27:12;1.80;96.80
58809;DHT22;44579;51.672;7.834;2024-01-15T00:29:39;1.90;96.80
58809;DHT22;44579;51.672;7.834;2024-01-15T00:32:05;1.90;96.80
58809;DHT22;44579;51.672;7.834;2024-01-15T00:34:32;1.90;96.80
58809;DHT22;44579;51.672;7.834;2024-01-15T00:36:59;1.90;96.80
58809;DHT22;44579;51.672;7.834;2024-01-15T00:39:26;1.90;96.80
58809;DHT22;44579;51.672;7.834;2024-01-15T00:41:53;1.90;96.80
58809;DHT22;44579;51.672;7.834;2024-01-15T00:44:19;1.90;96.80
58809;DHT22;44579;51.672;7.834;2024-01-15T00:46:46;1.90;96.90
58809;DHT22;44579;51.672;7.834;2024-01-15T00:49:13;1.90;96.90
58809;DHT22;44579;51.672;7.834;2024-01-15T00:51:41;1.90;96.80
58809;DHT22;44579;51.672;7.834;2024-01-15T00:54:08;1.90;96.80
58809;DHT22;44579;51.672;7.834;2024-01-15T00:56:35;2.00;96.80
58809;DHT22;44579;51.672;7.834;2024-01-15T00:59:02;2.00;96.80
58809;DHT22;44579;51.672;7.834;2024-01-15T01:01:29;2.00;96.80
58809;DHT22;44579;51.672;7.834;2024-01-15T01:03:57;2.00;96.80
58809;DHT22;44579;51.672;7.834;2024-01-15T01:06:24;1.90;96.80
58809;DHT22;44579;51.672;7.834;2024-01-15T01:08:51;1.90;96.80
58809;DHT22;44579;51.672;7.834;2024-01-15T01:11:18;1.90;96.80
58809;DHT22;44579;51.672;7.834;2024-01-15T01:13:45;1.90;96.80
58809;DHT22;44579;51.672;7.834;2024-01-15T01:16:12;2.00;96.90
58809;DHT22;44579;51.672;7.834;2024-01-15T01:18:38;2.00;96.80
58809;DHT22;44579;51.672;7.834;2024-01-15T01:21:06;2.00;96.80
58809;DHT22;44579;51.672;7.834;2024-01-15T01:23:33;2.00;96.80
58809;DHT22;44579;51.672;7.834;2024-01-15T01:25:59;2.00;96.80
58809;DHT22;44579;51.672;7.834;2024-01-15T01:28:27;2.00;96.80
58809;DHT22;44579;51.672;7.834;2024-01-15T01:30:54;2.00;96.80
58809;DHT22;44579;51.672;7.834;2024-01-15T01:33:20;2.00;96.80
58809;DHT22;44579;51.672;7.834;2024-01-15T01:35:48;2.00;96.90
58809;DHT22;44579;51.672;7.834;2024-01-15T01:38:14;2.00;96.90
58809;DHT22;44579;51.672;7.834;2024-01-15T01:40:42;2.00;96.90
58809;DHT22;44579;51.672;7.834;2024-01-15T01:43:09;2.00;97.30
58809;DHT22;44579;51.672;7.834;2024-01-15T01:45:36;2.00;96.90
58809;DHT22;44579;51.672;7.834;2024-01-15T01:48:03;2.00;96.80
58809;DHT22;44579;51.672;7.834;2024-01-15T01:50:30;2.10;96.90
58809;DHT22;44579;51.672;7.834;2024-01-15T01:52:58;2.00;96.80
58809;DHT22;44579;51.672;7.834;2024-01-15T01:55:26;2.00;96.90
58809;DHT22;44579;51.672;7.834;2024-01-15T01:57:54;2.00;96.90
58809;DHT22;44579;51.672;7.834;2024-01-15T02:00:21;2.00;96.80
58809;DHT22;44579;51.672;7.834;2024-01-15T02:02:48;2.10;96.90
58809;DHT22;44579;51.672;7.834;2024-01-15T02:05:16;2.00;96.80
58809;DHT22;44579;51.672;7.834;2024-01-15T02:07:44;2.00;96.80
58809;DHT22;44579;51.672;7.834;2024-01-15T02:10:11;2.00;96.80
58809;DHT22;44579;51.672;7.834;2024-01-15T02:12:38;2.00;96.80
58809;DHT22;44579;51.672;7.834;2024-01-15T02:15:05;2.00;96.80
58809;DHT22;44579;51.672;7.834;2024-01-15T02:17:32;2.00;96.80
58809;DHT22;44579;51.672;7.834;2024-01-15T02:19:59;2.00;96.80
58809;DHT22;44579;51.672;7.834;2024-01-15T02:22:26;2.00;96.90
58809;DHT22;44579;51.672;7.834;2024-01-15T02:24:52;2.00;96.90
58809;DHT22;44579;51.672;7.834;2024-01-15T02:27:20;2.00;96.90
58809;DHT22;44579;51.672;7.834;2024-01-15T02:29:47;2.00;96.90
58809;DHT22;44579;51.672;7.834;2024-01-15T02:32:14;2.00;96.90
58809;DHT22;44579;51.672;7.834;2024-01-15T02:34:41;2.00;96.90
58809;DHT22;44579;51.672;7.834;2024-01-15T02:37:08;2.10;96.90
58809;DHT22;44579;51.672;7.834;2024-01-15T02:39:35;2.10;96.90
58809;DHT22;44579;51.672;7.834;2024-01-15T02:42:02;2.10;96.90
58809;DHT22;44579;51.672;7.834;2024-01-15T02:44:28;2.10;96.90
58809;DHT22;44579;51.672;7.834;2024-01-15T02:46:55;2.10;96.90
58809;DHT22;44579;51.672;7.834;2024-01-15T02:49:22;2.10;96.90
58809;DHT22;44579;51.672;7.834;2024-01-15T02:51:49;2.10;96.90
58809;DHT22;44579;51.672;7.834;2024-01-15T02:54:16;2.10;96.90
58809;DHT22;44579;51.672;7.834;2024-01-15T02:56:43;2.10;97.00
58809;DHT22;44579;51.672;7.834;2024-01-15T02:59:09;2.10;96.90
58809;DHT22;44579;51.672;7.834;2024-01-15T03:01:36;2.10;96.90
58809;DHT22;44579;51.672;7.834;2024-01-15T03:04:03;2.10;96.90
58809;DHT22;44579;51.672;7.834;2024-01-15T03:06:30;2.10;96.90
58809;DHT22;44579;51.672;7.834;2024-01-15T03:08:57;2.10;96.90
58809;DHT22;44579;51.672;7.834;2024-01-15T03:11:23;2.10;96.90
58809;DHT22;44579;51.672;7.834;2024-01-15T03:13:50;2.00;96.80
58809;DHT22;44579;51.672;7.834;2024-01-15T03:16:17;2.00;96.70
58809;DHT22;44579;51.672;7.834;2024-01-15T03:18:46;2.00;96.70
58809;DHT22;44579;51.672;7.834;2024-01-15T03:21:13;1.90;96.70
58809;DHT22;44579;51.672;7.834;2024-01-15T03:23:40;1.90;96.70
58809;DHT22;44579;51.672;7.834;2024-01-15T03:26:06;1.90;96.80
58809;DHT22;44579;51.672;7.834;2024-01-15T03:28:33;1.90;96.80
58809;DHT22;44579;51.672;7.834;2024-01-15T03:31:00;1.90;96.90
58809;DHT22;44579;51.672;7.834;2024-01-15T03:33:27;1.90;96.90
58809;DHT22;44579;51.672;7.834;2024-01-15T03:35:54;1.90;96.90
58809;DHT22;44579;51.672;7.834;2024-01-15T03:38:22;2.00;96.90
58809;DHT22;44579;51.672;7.834;2024-01-15T03:40:49;2.00;96.90
58809;DHT22;44579;51.672;7.834;2024-01-15T03:43:15;2.00;96.90
58809;DHT22;44579;51.672;7.834;2024-01-15T03:45:42;2.00;97.30
58809;DHT22;44579;51.672;7.834;2024-01-15T03:48:09;2.00;96.90
58809;DHT22;44579;51.672;7.834;2024-01-15T03:50:36;2.10;96.90
58809;DHT22;44579;51.672;7.834;2024-01-15T03:53:03;2.00;96.80
58809;DHT22;44579;51.672;7.834;2024-01-15T03:55:30;2.00;96.80
58809;DHT22;44579;51.672;7.834;2024-01-15T03:57:56;2.00;96.80
58809;DHT22;44579;51.672;7.834;2024-01-15T04:00:23;2.00;96.80
58809;DHT22;44579;51.672;7.834;2024-01-15T04:02:50;1.90;96.70
58809;DHT22;44579;51.672;7.834;2024-01-15T04:05:17;1.90;96.70
58809;DHT22;44579;51.672;7.834;2024-01-15T04:07:43;1.90;96.60
58809;DHT22;44579;51.672;7.834;2024-01-15T04:10:10;1.90;96.60
58809;DHT22;44579;51.672;7.834;2024-01-15T04:12:37;1.80;96.60
58809;DHT22;44579;51.672;7.834;2024-01-15T04:15:04;1.80;96.70
58809;DHT22;44579;51.672;7.834;2024-01-15T04:17:31;1.80;96.70
58809;DHT22;44579;51.672;7.834;2024-01-15T04:19:58;1.80;96.80
58809;DHT22;44579;51.672;7.834;2024-01-15T04:22:25;1.80;96.80
58809;DHT22;44579;51.672;7.834;2024-01-15T04:24:51;1.80;96.80
58809;DHT22;44579;51.672;7.834;2024-01-15T04:27:18;1.90;96.90
58809;DHT22;44579;51.672;7.834;2024-01-15T04:29:45;1.90;96.80
58809;DHT22;44579;51.672;7.834;2024-01-15T04:32:12;2.00;96.80
58809;DHT22;44579;51.672;7.834;2024-01-15T04:34:39;1.90;96.80
58809;DHT22;44579;51.672;7.834;2024-01-15T04:37:06;2.00;96.80
58809;DHT22;44579;51.672;7.834;2024-01-15T04:39:33;2.00;97.20
58809;DHT22;44579;51.672;7.834;2024-01-15T04:41:59;2.00;96.80
58809;DHT22;44579;51.672;7.834;2024-01-15T04:44:26;2.00;96.80
58809;DHT22;44579;51.672;7.834;2024-01-15T04:46:53;2.00;96.80
58809;DHT22;44579;51.672;7.834;2024-01-15T04:49:20;2.00;96.80
58809;DHT22;44579;51.672;7.834;2024-01-15T04:51:47;2.00;96.80
58809;DHT22;44579;51.672;7.834;2024-01-15T04:54:13;2.10;96.90
58809;DHT22;44579;51.672;7.834;2024-01-15T04:56:44;2.10;96.90
58809;DHT22;44579;51.672;7.834;2024-01-15T04:59:11;2.10;96.80
58809;DHT22;44579;51.672;7.834;2024-01-15T05:01:37;2.10;96.90
58809;DHT22;44579;51.672;7.834;2024-01-15T05:04:04;2.20;96.90
58809;DHT22;44579;51.672;7.834;2024-01-15T05:06:31;2.10;96.80
58809;DHT22;44579;51.672;7.834;2024-01-15T05:08:58;2.10;96.80
58809;DHT22;44579;51.672;7.834;2024-01-15T05:11:26;2.20;96.90
58809;DHT22;44579;51.672;7.834;2024-01-15T05:13:52;2.10;96.80
58809;DHT22;44579;51.672;7.834;2024-01-15T05:16:19;2.10;96.80
58809;DHT22;44579;51.672;7.834;2024-01-15T05:18:46;2.10;96.80
58809;DHT22;44579;51.672;7.834;2024-01-15T05:21:13;2.10;96.80
58809;DHT22;44579;51.672;7.834;2024-01-15T05:23:40;2.10;96.80
58809;DHT22;44579;51.672;7.834;2024-01-15T05:26:06;2.10;96.70
58809;DHT22;44579;51.672;7.834;2024-01-15T05:28:35;2.00;96.80
58809;DHT22;44579;51.672;7.834;2024-01-15T05:31:02;2.00;96.80
58809;DHT22;44579;51.672;7.834;2024-01-15T05:33:30;2.00;96.80
58809;DHT22;44579;51.672;7.834;2024-01-15T05:35:57;2.00;96.80
58809;DHT22;44579;51.672;7.834;2024-01-15T05:38:25;2.00;96.80
58809;DHT22;44579;51.672;7.834;2024-01-15T05:40:52;2.00;96.90
58809;DHT22;44579;51.672;7.834;2024-01-15T05:43:19;2.00;96.90
58809;DHT22;44579;51.672;7.834;2024-01-15T05:45:45;2.10;97.00
58809;DHT22;44579;51.672;7.834;2024-01-15T05:48:12;2.10;97.00
58809;DHT22;44579;51.672;7.834;2024-01-15T05:50:39;2.10;97.00
58809;DHT22;44579;51.672;7.834;2024-01-15T05:53:06;2.10;97.00
58809;DHT22;44579;51.672;7.834;2024-01-15T05:55:33;2.10;97.00
58809;DHT22;44579;51.672;7.834;2024-01-15T05:58:00;2.10;97.00
58809;DHT22;44579;51.672;7.834;2024-01-15T06:00:26;2.20;97.00
58809;DHT22;44579;51.672;7.834;2024-01-15T06:02:53;2.20;97.00
58809;DHT22;44579;51.672;7.834;2024-01-15T06:05:20;2.20;97.00
58809;DHT22;44579;51.672;7.834;2024-01-15T06:07:47;2.20;97.00
58809;DHT22;44579;51.672;7.834;2024-01-15T06:10:13;2.20;97.00
58809;DHT22;44579;51.672;7.834;2024-01-15T06:12:40;2.20;97.00
58809;DHT22;44579;51.672;7.834;2024-01-15T06:15:07;2.20;97.00
58809;DHT22;44579;51.672;7.834;2024-01-15T06:17:34;2.20;97.00
58809;DHT22;44579;51.672;7.834;2024-01-15T06:20:01;2.30;97.10
58809;DHT22;44579;51.672;7.834;2024-01-15T06:22:28;2.30;97.10
58809;DHT22;44579;51.672;7.834;2024-01-15T06:24:55;2.30;97.10
58809;DHT22;44579;51.672;7.834;2024-01-15T06:27:22;2.20;97.00
58809;DHT22;44579;51.672;7.834;2024-01-15T06:29:49;2.30;97.00
58809;DHT22;44579;51.672;7.834;2024-01-15T06:32:17;2.30;97.00
58809;DHT22;44579;51.672;7.834;2024-01-15T06:34:43;2.30;97.10
58809;DHT22;44579;51.672;7.834;2024-01-15T06:37:10;2.30;97.10
58809;DHT22;44579;51.672;7.834;2024-01-15T06:39:37;2.30;97.10
58809;DHT22;44579;51.672;7.834;2024-01-15T06:42:04;2.30;97.10
58809;DHT22;44579;51.672;7.834;2024-01-15T06:44:31;2.30;97.10
58809;DHT22;44579;51.672;7.834;2024-01-15T06:46:58;2.30;97.10
58809;DHT22;44579;51.672;7.834;2024-01-15T06:49:29;2.30;97.10
58809;DHT22;44579;51.672;7.834;2024-01-15T06:51:56;2.30;97.10
58809;DHT22;44579;51.672;7.834;2024-01-15T06:54:23;2.30;97.10
58809;DHT22;44579;51.672;7.834;2024-01-15T06:56:50;2.30;97.10
58809;DHT22;44579;51.672;7.834;2024-01-15T06:59:17;2.40;97.10
58809;DHT22;44579;51.672;7.834;2024-01-15T07:01:46;2.30;97.10
58809;DHT22;44579;51.672;7.834;2024-01-15T07:04:13;2.30;97.10
58809;DHT22;44579;51.672;7.834;2024-01-15T07:06:40;2.30;97.10
58809;DHT22;44579;51.672;7.834;2024-01-15T07:09:07;2.30;97.10
58809;DHT22;44579;51.672;7.834;2024-01-15T07:11:35;2.30;97.20
58809;DHT22;44579;51.672;7.834;2024-01-15T07:14:02;2.30;97.10
58809;DHT22;44579;51.672;7.834;2024-01-15T07:16:29;2.30;97.10
58809;DHT22;44579;51.672;7.834;2024-01-15T07:19:04;2.30;97.20
58809;DHT22;44579;51.672;7.834;2024-01-15T07:21:31;2.30;97.20
58809;DHT22;44579;51.672;7.834;2024-01-15T07:23:58;2.30;97.20
58809;DHT22;44579;51.672;7.834;2024-01-15T07:26:25;2.30;97.20
58809;DHT22;44579;51.672;7.834;2024-01-15T07:28:52;2.30;97.20
58809;DHT22;44579;51.672;7.834;2024-01-15T07:31:19;2.30;97.10
58809;DHT22;44579;51.672;7.834;2024-01-15T07:33:46;2.30;97.10
58809;DHT22;44579;51.672;7.834;2024-01-15T07:36:13;2.30;97.10
58809;DHT22;44579;51.672;7.834;2024-01-15T07:38:40;2.30;97.10
58809;DHT22;44579;51.672;7.834;2024-01-15T07:41:07;2.30;97.20
58809;DHT22;44579;51.672;7.834;2024-01-15T07:43:34;2.30;97.20
58809;DHT22;44579;51.672;7.834;2024-01-15T07:46:01;2.30;97.10
58809;DHT22;44579;51.672;7.834;2024-01-15T07:48:29;2.30;97.20
58809;DHT22;44579;51.672;7.834;2024-01-15T07:50:56;2.30;97.20
58809;DHT22;44579;51.672;7.834;2024-01-15T07:53:23;2.20;97.10
58809;DHT22;44579;51.672;7.834;2024-01-15T07:55:50;2.20;97.10
58809;DHT22;44579;51.672;7.834;2024-01-15T07:58:17;2.20;97.20
58809;DHT22;44579;51.672;7.834;2024-01-15T08:00:44;2.20;97.20
58809;DHT22;44579;51.672;7.834;2024-01-15T08:03:12;2.20;97.20
58809;DHT22;44579;51.672;7.834;2024-01-15T08:05:42;2.20;97.20
58809;DHT22;44579;51.672;7.834;2024-01-15T08:08:09;2.20;97.20
58809;DHT22;44579;51.672;7.834;2024-01-15T08:10:36;2.30;97.20
58809;DHT22;44579;51.672;7.834;2024-01-15T08:13:02;2.20;97.10
58809;DHT22;44579;51.672;7.834;2024-01-15T08:15:29;2.30;97.20
58809;DHT22;44579;51.672;7.834;2024-01-15T08:17:57;2.20;97.20
58809;DHT22;44579;51.672;7.834;2024-01-15T08:20:25;2.20;97.20
58809;DHT22;44579;51.672;7.834;2024-01-15T08:22:52;2.20;97.20
58809;DHT22;44579;51.672;7.834;2024-01-15T08:25:19;2.30;97.20
58809;DHT22;44579;51.672;7.834;2024-01-15T08:27:45;2.20;97.20
58809;DHT22;44579;51.672;7.834;2024-01-15T08:30:12;2.20;97.10
58809;DHT22;44579;51.672;7.834;2024-01-15T08:32:39;2.10;97.20
58809;DHT22;44579;51.672;7.834;2024-01-15T08:35:09;2.10;97.20
58809;DHT22;44579;51.672;7.834;2024-01-15T08:37:37;2.10;97.20
58809;DHT22;44579;51.672;7.834;2024-01-15T08:40:04;2.10;97.20
58809;DHT22;44579;51.672;7.834;2024-01-15T08:42:31;2.10;97.20
58809;DHT22;44579;51.672;7.834;2024-01-15T08:44:58;2.10;97.10
58809;DHT22;44579;51.672;7.834;2024-01-15T08:47:25;2.10;97.10
58809;DHT22;44579;51.672;7.834;2024-01-15T08:49:52;2.10;97.20
58809;DHT22;44579;51.672;7.834;2024-01-15T08:52:20;2.00;97.20
58809;DHT22;44579;51.672;7.834;2024-01-15T08:54:48;2.00;97.20
58809;DHT22;44579;51.672;7.834;2024-01-15T08:57:16;2.00;97.20
58809;DHT22;44579;51.672;7.834;2024-01-15T08:59:43;2.00;97.30
58809;DHT22;44579;51.672;7.834;2024-01-15T09:02:09;2.10;97.30
58809;DHT22;44579;51.672;7.834;2024-01-15T09:05:02;2.10;97.30
58809;DHT22;44579;51.672;7.834;2024-01-15T09:07:31;2.10;97.60
58809;DHT22;44579;51.672;7.834;2024-01-15T09:09:58;2.10;97.20
58809;DHT22;44579;51.672;7.834;2024-01-15T09:12:26;2.10;97.20
58809;DHT22;44579;51.672;7.834;2024-01-15T09:14:53;2.20;97.20
58809;DHT22;44579;51.672;7.834;2024-01-15T09:17:20;2.20;97.20
58809;DHT22;44579;51.672;7.834;2024-01-15T09:19:48;2.20;97.20
58809;DHT22;44579;51.672;7.834;2024-01-15T09:22:16;2.20;97.20
58809;DHT22;44579;51.672;7.834;2024-01-15T09:24:45;2.30;97.30
58809;DHT22;44579;51.672;7.834;2024-01-15T09:27:12;2.30;97.30
58809;DHT22;44579;51.672;7.834;2024-01-15T09:29:40;2.40;97.30
58809;DHT22;44579;51.672;7.834;2024-01-15T09:32:08;2.40;97.30
58809;DHT22;44579;51.672;7.834;2024-01-15T09:34:35;2.40;97.30
58809;DHT22;44579;51.672;7.834;2024-01-15T09:37:03;2.40;97.30
58809;DHT22;44579;51.672;7.834;2024-01-15T09:39:30;2.40;97.30
58809;DHT22;44579;51.672;7.834;2024-01-15T09:41:58;2.40;97.40
58809;DHT22;44579;51.672;7.834;2024-01-15T09:44:26;2.40;97.40
58809;DHT22;44579;51.672;7.834;2024-01-15T09:46:53;2.40;97.40
58809;DHT22;44579;51.672;7.834;2024-01-15T09:49:21;2.40;97.50
58809;DHT22;44579;51.672;7.834;2024-01-15T09:51:49;2.40;97.50
58809;DHT22;44579;51.672;7.834;2024-01-15T09:54:31;2.50;97.50
58809;DHT22;44579;51.672;7.834;2024-01-15T09:56:59;2.40;97.40
58809;DHT22;44579;51.672;7.834;2024-01-15T09:59:27;2.40;97.50
58809;DHT22;44579;51.672;7.834;2024-01-15T10:01:54;2.40;97.60
58809;DHT22;44579;51.672;7.834;2024-01-15T10:04:22;2.40;97.60
58809;DHT22;44579;51.672;7.834;2024-01-15T10:06:51;2.40;97.70
58809;DHT22;44579;51.672;7.834;2024-01-15T10:09:18;2.40;97.70
58809;DHT22;44579;51.672;7.834;2024-01-15T10:11:45;2.40;97.70
58809;DHT22;44579;51.672;7.834;2024-01-15T10:14:12;2.40;97.60
58809;DHT22;44579;51.672;7.834;2024-01-15T10:16:39;2.40;97.70
58809;DHT22;44579;51.672;7.834;2024-01-15T10:19:07;2.50;97.70
58809;DHT22;44579;51.672;7.834;2024-01-15T10:21:35;2.40;97.60
58809;DHT22;44579;51.672;7.834;2024-01-15T10:24:04;2.50;97.70
58809;DHT22;44579;51.672;7.834;2024-01-15T10:26:32;2.40;97.70
58809;DHT22;44579;51.672;7.834;2024-01-15T10:28:59;2.50;97.80
58809;DHT22;44579;51.672;7.834;2024-01-15T10:31:26;2.50;97.70
58809;DHT22;44579;51.672;7.834;2024-01-15T10:34:30;2.50;97.70
58809;DHT22;44579;51.672;7.834;2024-01-15T10:36:49;2.50;97.70
58809;DHT22;44579;51.672;7.834;2024-01-15T10:39:22;2.50;97.70
58809;DHT22;44579;51.672;7.834;2024-01-15T10:41:52;2.50;97.80
58809;DHT22;44579;51.672;7.834;2024-01-15T10:44:19;2.40;97.80
58809;DHT22;44579;51.672;7.834;2024-01-15T10:46:46;2.40;97.80
58809;DHT22;44579;51.672;7.834;2024-01-15T10:49:16;2.40;97.90
58809;DHT22;44579;51.672;7.834;2024-01-15T10:51:46;2.40;97.90
58809;DHT22;44579;51.672;7.834;2024-01-15T10:54:16;2.50;98.00
58809;DHT22;44579;51.672;7.834;2024-01-15T10:56:44;2.50;98.10
58809;DHT22;44579;51.672;7.834;2024-01-15T10:59:12;2.50;98.10
58809;DHT22;44579;51.672;7.834;2024-01-15T11:02:04;2.60;98.20
58809;DHT22;44579;51.672;7.834;2024-01-15T11:05:15;2.60;98.20
58809;DHT22;44579;51.672;7.834;2024-01-15T11:07:44;2.60;98.20
58809;DHT22;44579;51.672;7.834;2024-01-15T11:13:01;2.70;98.20
58809;DHT22;44579;51.672;7.834;2024-01-15T11:15:28;2.60;98.10
58809;DHT22;44579;51.672;7.834;2024-01-15T11:18:00;2.70;98.20
58809;DHT22;44579;51.672;7.834;2024-01-15T11:20:32;2.70;98.10
58809;DHT22;44579;51.672;7.834;2024-01-15T11:22:59;2.70;98.50
58809;DHT22;44579;51.672;7.834;2024-01-15T11:25:34;2.60;98.10
58809;DHT22;44579;51.672;7.834;2024-01-15T11:28:01;2.60;98.20
58809;DHT22;44579;51.672;7.834;2024-01-15T11:30:28;2.60;98.30
58809;DHT22;44579;51.672;7.834;2024-01-15T11:32:55;2.70;98.30
58809;DHT22;44579;51.672;7.834;2024-01-15T11:35:22;2.70;98.40
58809;DHT22;44579;51.672;7.834;2024-01-15T11:40:22;2.70;98.50
58809;DHT22;44579;51.672;7.834;2024-01-15T11:42:49;2.80;98.60
58809;DHT22;44579;51.672;7.834;2024-01-15T11:45:19;2.80;98.50
58809;DHT22;44579;51.672;7.834;2024-01-15T11:50:26;2.90;98.50
58809;DHT22;44579;51.672;7.834;2024-01-15T11:52:59;2.90;98.50
58809;DHT22;44579;51.672;7.834;2024-01-15T11:55:36;2.90;98.40
58809;DHT22;44579;51.672;7.834;2024-01-15T11:58:08;2.90;98.40
58809;DHT22;44579;51.672;7.834;2024-01-15T12:00:44;2.90;98.40
58809;DHT22;44579;51.672;7.834;2024-01-15T12:03:16;2.90;98.50
58809;DHT22;44579;51.672;7.834;2024-01-15T12:05:43;2.90;98.50
58809;DHT22;44579;51.672;7.834;2024-01-15T12:08:10;2.80;98.50
58809;DHT22;44579;51.672;7.834;2024-01-15T12:10:38;2.80;98.50
58809;DHT22;44579;51.672;7.834;2024-01-15T12:13:09;2.70;98.50
58809;DHT22;44579;51.672;7.834;2024-01-15T12:15:36;2.70;98.50
58809;DHT22;44579;51.672;7.834;2024-01-15T12:18:05;2.70;98.50
58809;DHT22;44579;51.672;7.834;2024-01-15T12:20:32;2.70;98.50
58809;DHT22;44579;51.672;7.834;2024-01-15T12:23:00;2.70;98.60
58809;DHT22;44579;51.672;7.834;2024-01-15T12:25:30;2.70;98.60
58809;DHT22;44579;51.672;7.834;2024-01-15T12:27:58;2.70;98.50
58809;DHT22;44579;51.672;7.834;2024-01-15T12:30:28;2.70;98.60
58809;DHT22;44579;51.672;7.834;2024-01-15T12:32:55;2.70;98.50
58809;DHT22;44579;51.672;7.834;2024-01-15T12:35:23;2.80;98.60
58809;DHT22;44579;51.672;7.834;2024-01-15T12:37:51;2.80;98.60
58809;DHT22;44579;51.672;7.834;2024-01-15T12:40:21;2.80;98.50
58809;DHT22;44579;51.672;7.834;2024-01-15T12:42:48;2.90;98.60
58809;DHT22;44579;51.672;7.834;2024-01-15T12:45:16;2.90;98.60
58809;DHT22;44579;51.672;7.834;2024-01-15T12:47:44;3.00;98.60
58809;DHT22;44579;51.672;7.834;2024-01-15T12:50:12;3.00;98.50
58809;DHT22;44579;51.672;7.834;2024-01-15T12:52:46;3.00;98.50
58809;DHT22;44579;51.672;7.834;2024-01-15T12:55:13;2.90;98.50
58809;DHT22;44579;51.672;7.834;2024-01-15T12:57:40;3.00;98.50
58809;DHT22;44579;51.672;7.834;2024-01-15T13:00:10;2.90;98.50
58809;DHT22;44579;51.672;7.834;2024-01-15T13:02:41;2.90;98.40
58809;DHT22;44579;51.672;7.834;2024-01-15T13:05:09;2.90;98.40
58809;DHT22;44579;51.672;7.834;2024-01-15T13:07:41;2.90;98.50
58809;DHT22;44579;51.672;7.834;2024-01-15T13:10:09;2.90;98.50
58809;DHT22;44579;51.672;7.834;2024-01-15T13:12:37;2.80;98.50
58809;DHT22;44579;51.672;7.834;2024-01-15T13:15:04;2.80;98.50
58809;DHT22;44579;51.672;7.834;2024-01-15T13:17:31;2.90;98.50
58809;DHT22;44579;51.672;7.834;2024-01-15T13:19:59;2.90;98.50
58809;DHT22;44579;51.672;7.834;2024-01-15T13:22:27;3.00;98.50
58809;DHT22;44579;51.672;7.834;2024-01-15T13:24:58;3.00;98.40
58809;DHT22;44579;51.672;7.834;2024-01-15T13:27:26;3.00;98.40
58809;DHT22;44579;51.672;7.834;2024-01-15T13:29:53;2.90;98.40
58809;DHT22;44579;51.672;7.834;2024-01-15T13:32:24;2.90;98.40
58809;DHT22;44579;51.672;7.834;2024-01-15T13:34:52;2.90;98.30
58809;DHT22;44579;51.672;7.834;2024-01-15T13:37:20;2.90;98.20
58809;DHT22;44579;51.672;7.834;2024-01-15T13:39:47;2.80;98.20
58809;DHT22;44579;51.672;7.834;2024-01-15T13:42:14;2.80;98.30
58809;DHT22;44579;51.672;7.834;2024-01-15T13:44:42;2.80;98.30
58809;DHT22;44579;51.672;7.834;2024-01-15T13:47:09;2.80;98.30
58809;DHT22;44579;51.672;7.834;2024-01-15T13:49:36;2.80;98.30
58809;DHT22;44579;51.672;7.834;2024-01-15T13:52:03;2.90;98.40
58809;DHT22;44579;51.672;7.834;2024-01-15T13:54:31;2.90;98.30
58809;DHT22;44579;51.672;7.834;2024-01-15T13:57:14;2.90;98.30
58809;DHT22;44579;51.672;7.834;2024-01-15T13:59:42;2.90;98.40
58809;DHT22;44579;51.672;7.834;2024-01-15T14:02:09;3.00;98.40
58809;DHT22;44579;51.672;7.834;2024-01-15T14:04:37;3.00;98.40
58809;DHT22;44579;51.672;7.834;2024-01-15T14:07:04;3.00;98.30
58809;DHT22;44579;51.672;7.834;2024-01-15T14:09:31;3.00;98.40
58809;DHT22;44579;51.672;7.834;2024-01-15T14:11:58;3.00;98.40
58809;DHT22;44579;51.672;7.834;2024-01-15T14:14:26;3.00;98.40
58809;DHT22;44579;51.672;7.834;2024-01-15T14:16:52;3.00;98.50
58809;DHT22;44579;51.672;7.834;2024-01-15T14:19:19;3.00;98.40
58809;DHT22;44579;51.672;7.834;2024-01-15T14:21:48;3.00;98.50
58809;DHT22;44579;51.672;7.834;2024-01-15T14:24:15;3.00;98.40
58809;DHT22;44579;51.672;7.834;2024-01-15T14:26:43;3.00;98.30
58809;DHT22;44579;51.672;7.834;2024-01-15T14:29:10;2.90;98.30
58809;DHT22;44579;51.672;7.834;2024-01-15T14:31:37;2.90;98.30
58809;DHT22;44579;51.672;7.834;2024-01-15T14:34:04;2.90;98.30
58809;DHT22;44579;51.672;7.834;2024-01-15T14:36:34;2.90;98.20
58809;DHT22;44579;51.672;7.834;2024-01-15T14:39:01;2.90;98.20
58809;DHT22;44579;51.672;7.834;2024-01-15T14:41:29;2.90;98.20
58809;DHT22;44579;51.672;7.834;2024-01-15T14:43:56;2.90;98.20
58809;DHT22;44579;51.672;7.834;2024-01-15T14:46:24;2.90;98.20
58809;DHT22;44579;51.672;7.834;2024-01-15T14:48:51;2.90;98.20
58809;DHT22;44579;51.672;7.834;2024-01-15T14:51:18;2.90;98.20
58809;DHT22;44579;51.672;7.834;2024-01-15T14:53:45;2.90;98.20
58809;DHT22;44579;51.672;7.834;2024-01-15T14:56:12;2.90;98.20
58809;DHT22;44579;51.672;7.834;2024-01-15T14:58:43;3.00;98.20
58809;DHT22;44579;51.672;7.834;2024-01-15T15:01:09;3.00;98.10
58809;DHT22;44579;51.672;7.834;2024-01-15T15:03:37;3.00;98.10
58809;DHT22;44579;51.672;7.834;2024-01-15T15:06:04;3.00;98.10
58809;DHT22;44579;51.672;7.834;2024-01-15T15:08:31;3.00;98.10
58809;DHT22;44579;51.672;7.834;2024-01-15T15:10:58;3.00;98.10
58809;DHT22;44579;51.672;7.834;2024-01-15T15:13:26;2.90;98.00
58809;DHT22;44579;51.672;7.834;2024-01-15T15:16:10;2.90;98.00
58809;DHT22;44579;51.672;7.834;2024-01-15T15:18:37;2.80;98.00
58809;DHT22;44579;51.672;7.834;2024-01-15T15:21:06;2.80;98.00
58809;DHT22;44579;51.672;7.834;2024-01-15T15:23:34;2.70;98.00
58809;DHT22;44579;51.672;7.834;2024-01-15T15:26:01;2.70;98.00
58809;DHT22;44579;51.672;7.834;2024-01-15T15:28:28;2.70;98.10
58809;DHT22;44579;51.672;7.834;2024-01-15T15:30:55;2.60;98.00
58809;DHT22;44579;51.672;7.834;2024-01-15T15:33:23;2.50;98.00
58809;DHT22;44579;51.672;7.834;2024-01-15T15:35:50;2.50;98.00
58809;DHT22;44579;51.672;7.834;2024-01-15T15:38:18;2.50;98.00
58809;DHT22;44579;51.672;7.834;2024-01-15T15:40:44;2.50;98.00
58809;DHT22;44579;51.672;7.834;2024-01-15T15:43:11;2.50;98.00
58809;DHT22;44579;51.672;7.834;2024-01-15T15:45:38;2.40;98.00
58809;DHT22;44579;51.672;7.834;2024-01-15T15:48:05;2.40;98.00
58809;DHT22;44579;51.672;7.834;2024-01-15T15:50:33;2.50;98.00
58809;DHT22;44579;51.672;7.834;2024-01-15T15:53:01;2.40;97.80
58809;DHT22;44579;51.672;7.834;2024-01-15T15:55:30;2.30;97.60